Weather reports worldwide

Advertisment
Rodkallen, Sweden (2188): temperature & dewpoint: 21.04.2017 05:00:00 - 27.04.2017 05:00:00 (CEST)Rodkallen, Sweden (2188): wind speed & gusts: 21.04.2017 05:00:00 - 27.04.2017 05:00:00 (CEST)Rodkallen, Sweden (2188): wind direction: 21.04.2017 05:00:00 - 27.04.2017 05:00:00 (CEST)Rodkallen, Sweden (2188): visibility: 21.04.2017 05:00:00 - 27.04.2017 05:00:00 (CEST)Rodkallen, Sweden (2188): precipitation: 21.04.2017 05:00:00 - 27.04.2017 05:00:00 (CEST)
Date & Time tt [°C] td [°C] ff [km/h] ff [kn] fx [km/h] fx [kn] dd vv [km] rr [mm]
27.04.2017 05:00:00 -0,1 -2,1 29 16 44 24 NW 27 0,0
27.04.2017 04:00:00 0,8 -2,8 29 16 49 26 NNW 17 0,0
27.04.2017 03:00:00 1,1 -2,3 27 14 46 25 NNW 50 0,0
27.04.2017 02:00:00 1,2 -1,9 30 16 59 32 NNW 16 0,0
27.04.2017 01:00:00 1,7 -2,4 30 16 54 29 NNW 50 0,0
27.04.2017 00:00:00 1,9 -2,4 34 18 50 27 NNW 50 0,0
26.04.2017 23:00:00 2,1 -2,4 38 21 66 36 NNW 50 0,0
26.04.2017 22:00:00 1,9 -1,7 31 17 51 28 NNW 50 0,0
26.04.2017 21:00:00 1,0 -0,5 35 19 54 29 NW 50 0,0
26.04.2017 20:00:00 0,9 0,2 35 19 55 30 NNW 15 0,0
26.04.2017 19:00:00 0,8 0,1 42 23 68 37 NNW 3,5 0,1
26.04.2017 18:00:00 0,5 0,5 41 22 67 36 NNW 2,5 0,0
26.04.2017 17:00:00 0,1 0,1 41 22 76 41 NNW 1,7 0,1
26.04.2017 16:00:00 0,0 0,0 45 24 73 39 NNW 0,8 0,1
26.04.2017 15:00:00 0,0 0,0 40 22 63 34 N 0,9 0,7
26.04.2017 14:00:00 0,0 0,0 46 25 64 35 N 1,2 0,2
26.04.2017 13:00:00 1,4 -1,8 36 19 60 33 NNE 44 0,0
26.04.2017 12:00:00 2,3 -2,8 32 18 51 28 N 50 0,0
26.04.2017 11:00:00 1,5 -2,4 30 16 45 24 N 48 0,0
26.04.2017 10:00:00 1,2 -2,6 36 19 50 27 N 47 0,0
26.04.2017 09:00:00 0,6 -3,0 36 20 49 27 N 50 0,0
26.04.2017 08:00:00 -0,4 -3,3 31 17 43 23 N 46 0,0
26.04.2017 07:00:00 -0,7 -3,1 29 16 39 21 N 50 0,0
26.04.2017 06:00:00 -0,8 -3,2 29 16 35 19 N 49 0,0
26.04.2017 05:00:00 -0,6 -3,0 27 15 36 20 N 50 0,0
26.04.2017 04:00:00 -0,1 -3,5 31 17 39 21 NNE 50 0,0
26.04.2017 03:00:00 0,2 -2,3 28 15 35 19 NNE 50 0,0
26.04.2017 02:00:00 0,4 -2,1 28 15 37 20 NNE 50 0,0
26.04.2017 01:00:00 0,8 -1,6 24 13 33 18 NE 50 0,0
26.04.2017 00:00:00 0,9 -1,5 25 14 32 18 NNE 50 0,0
25.04.2017 23:00:00 0,9 -1,5 24 13 36 19 NNE 50 0,0
25.04.2017 22:00:00 1,2 -1,2 23 12 34 18 NE 50 0,0
25.04.2017 21:00:00 1,5 -1,4 23 13 30 16 NE 50 0,0
25.04.2017 20:00:00 1,6 -1,3 24 13 29 16 NE 50 0,0
25.04.2017 19:00:00 1,6 -1,0 22 12 29 15 NE 50 0,0
25.04.2017 18:00:00 1,7 -0,9 24 13 29 15 NE 50 0,0
25.04.2017 17:00:00 1,6 -0,5 23 12 28 15 NNE 48 0,0
25.04.2017 16:00:00 1,6 -0,6 23 13 27 15 NNE 33 0,0
25.04.2017 15:00:00 1,1 -0,2 20 11 24 13 NNE 34 0,0
25.04.2017 14:00:00 0,7 -0,3 19 10 26 14 NE 37 0,0
25.04.2017 13:00:00 0,4 -0,3 20 11 27 15 NNE 27 0,0
25.04.2017 12:00:00 0,3 -0,6 22 12 26 14 NE 31 0,0
25.04.2017 11:00:00 0,2 -0,5 18 10 22 12 NE 29 0,0
25.04.2017 10:00:00 -0,2 -0,3 18 10 23 13 NE 30 0,0
25.04.2017 09:00:00 -0,5 -0,5 18 10 22 12 NE 29 0,0
25.04.2017 08:00:00 -0,5 -0,5 18 10 21 11 NE 37 0,0
25.04.2017 07:00:00 -1,1 -1,1 16 8 18 10 NE 33 0,0
25.04.2017 06:00:00 -1,7 -1,7 16 9 18 10 NNE 44 0,0
25.04.2017 05:00:00 -1,8 -1,8 16 8 19 10 NNE 33 0,0
25.04.2017 04:00:00 -2,5 -2,5 13 7 18 10 N 32 0,0
25.04.2017 03:00:00 -1,9 -1,9 14 7 18 10 NNW 12 0,0
25.04.2017 02:00:00 -1,7 -1,7 12 7 17 9 NNW 0,6 0,0
25.04.2017 01:00:00 -1,7 -1,7 12 6 16 8 NNW 0,3 0,0
25.04.2017 00:00:00 -1,8 -1,8 8 5 10 6 N 21 0,0
24.04.2017 23:00:00 -1,3 -1,3 6 3 11 6 NNE 0,4 0,0
24.04.2017 22:00:00 -1,3 -1,3 0 0 8 5 N 0,3 0,0
24.04.2017 21:00:00 -1,2 -1,2 6 3 8 5 SE 0,5 0,0
24.04.2017 20:00:00 -1,1 -1,1 0 0 8 5 N 1,1 0,0
24.04.2017 19:00:00 -0,9 -0,9 5 3 10 6 E 5 0,0
24.04.2017 18:00:00 -0,8 -0,8 6 3 10 6 E 16 0,0
24.04.2017 17:00:00 -0,3 -0,3 4 2 9 5 S 26 0,0
24.04.2017 16:00:00 -0,4 -0,4 4 2 8 4 NE 9 0,0
24.04.2017 15:00:00 -0,2 -0,2 3 1 11 6 NE 1,5 0,0
24.04.2017 14:00:00 -0,1 -0,1 6 3 13 7 ESE 3,3 0,0
24.04.2017 13:00:00 -0,3 -0,3 10 5 15 8 E 15 0,0
24.04.2017 12:00:00 0,1 0,1 11 6 16 9 ESE 26 0,0
24.04.2017 11:00:00 0,1 0,1 10 5 19 10 E 24 0,0
24.04.2017 10:00:00 -0,2 -0,2 16 9 21 12 E 18 0,0
24.04.2017 09:00:00 -0,2 -0,2 19 11 29 15 E 20 0,0
24.04.2017 08:00:00 -0,3 -0,3 21 11 28 15 E 21 0,0
24.04.2017 07:00:00 -0,3 -0,3 24 13 27 15 E 2,7 0,1
24.04.2017 06:00:00 0,0 0,0 21 11 25 14 E 4,8 0,0
24.04.2017 05:00:00 0,0 0,0 19 10 24 13 E 17 0,0
24.04.2017 04:00:00 -0,4 -0,4 16 9 23 12 E 12 0,0
24.04.2017 03:00:00 -0,7 -0,7 15 8 18 10 ENE 11 0,8
24.04.2017 02:00:00 -0,8 -0,8 14 7 21 11 E 1,1 1,1
24.04.2017 01:00:00 -0,6 -0,6 16 9 21 12 E 11 0,0
24.04.2017 00:00:00 -0,8 -0,8 18 10 22 12 ENE 50 0,0
23.04.2017 23:00:00 -1,0 -1,0 16 9 21 11 ENE 49 0,0
23.04.2017 22:00:00 -1,2 -1,2 18 10 21 11 ENE 32 0,0
23.04.2017 21:00:00 -1,2 -1,2 14 8 17 9 ENE 50 0,0
23.04.2017 20:00:00 -1,9 -1,9 11 6 13 7 ENE 0,7 0,0
23.04.2017 19:00:00 -2,0 -2,0 8 4 14 8 ENE 0,3 0,0
23.04.2017 18:00:00 -1,3 -1,3 9 5 14 8 E 0,3 0,0
23.04.2017 17:00:00 -1,3 -1,3 11 6 15 8 E 3,7 0,0
23.04.2017 16:00:00 -0,8 -0,8 12 6 15 8 E 7 0,0
23.04.2017 15:00:00 -0,9 -0,9 10 5 15 8 ENE 2,0 0,0
23.04.2017 14:00:00 -0,9 -0,9 11 6 18 10 E 1,4 0,0
23.04.2017 13:00:00 -1,0 -1,0 14 7 21 11 E 0,8 0,0
23.04.2017 12:00:00 -1,4 -1,4 15 8 18 10 ENE 1,0 0,0
23.04.2017 11:00:00 -1,1 -1,1 14 7 16 9 NE 0,7 0,0
23.04.2017 10:00:00 -0,3 -2,5 12 7 15 8 NE 36 0,0
23.04.2017 09:00:00 0,3 -3,8 3 2 7 4 N 43 0,0
23.04.2017 08:00:00 0,3 -4,2 7 4 10 5 N 49 0,0
23.04.2017 07:00:00 -0,7 -4,1 5 3 10 5 NW 50 0,0
23.04.2017 06:00:00 -0,8 -3,8 8 4 11 6 NW 50 0,0
23.04.2017 05:00:00 -1,6 -3,8 12 6 17 9 WNW 50 0,0
23.04.2017 04:00:00 -0,6 -3,1 16 8 20 11 W 50 0,0
23.04.2017 03:00:00 -0,5 -3,5 18 10 24 13 W 50 0,0
23.04.2017 02:00:00 -0,1 -3,6 21 11 25 14 W 50 0,0
23.04.2017 01:00:00 0,1 -3,6 20 11 23 13 W 50 0,0
23.04.2017 00:00:00 0,5 -2,7 15 8 18 10 W 50 0,0
22.04.2017 23:00:00 0,3 -1,9 10 6 13 7 W 50 0,0
22.04.2017 22:00:00 0,7 -2,2 8 5 13 7 W 50 0,0
22.04.2017 21:00:00 1,1 -4,0 11 6 22 12 WNW 50 0,0
22.04.2017 20:00:00 2,3 -4,0 17 9 22 12 NW 50 0,0
22.04.2017 19:00:00 2,8 -3,5 16 8 26 14 NW 50 0,0
22.04.2017 18:00:00 2,8 -2,9 20 11 31 17 NW 50 0,0
22.04.2017 17:00:00 2,5 -1,8 19 10 31 17 WNW 47 0,0
22.04.2017 16:00:00 2,9 -1,8 21 11 31 17 NW 50 0,0
22.04.2017 15:00:00 3,0 -1,9 19 10 27 15 NW 46 0,0
22.04.2017 14:00:00 3,1 -2,2 20 11 29 16 NW 38 0,0
22.04.2017 13:00:00 2,7 -1,5 16 9 34 18 NW 49 0,0
22.04.2017 12:00:00 2,1 -1,2 23 13 37 20 NW 41 0,0
22.04.2017 11:00:00 2,1 -0,8 26 14 35 19 NW 36 0,0
22.04.2017 10:00:00 1,8 -0,3 21 12 36 20 NNW 50 0,0
22.04.2017 09:00:00 1,2 -0,1 21 12 39 21 NNW 41 0,0
22.04.2017 08:00:00 0,8 -0,1 31 17 44 24 N 40 0,0
22.04.2017 07:00:00 0,7 0,7 27 15 41 22 NNW 10 0,1
22.04.2017 06:00:00 0,2 0,2 26 14 34 18 N 2,5 0,8
22.04.2017 05:00:00 0,1 0,1 20 11 35 19 N 2,1 0,7
22.04.2017 04:00:00 0,6 0,6 28 15 35 19 N 13 0,0
22.04.2017 03:00:00 0,5 0,5 24 13 29 16 N 35 0,0
22.04.2017 02:00:00 0,3 0,3 20 11 23 12 NNE 48 0,0
22.04.2017 01:00:00 0,5 0,5 9 5 14 8 E 50 0,0
22.04.2017 00:00:00 -0,3 -0,3 2 1 9 5 ENE 50 0,0
21.04.2017 23:00:00 1,5 0,2 6 3 12 6 SW 50 0,0
21.04.2017 22:00:00 1,1 0,5 10 5 16 9 SSW 50 0,0
21.04.2017 21:00:00 1,7 0,4 15 8 23 12 SSW 50 0,0
21.04.2017 20:00:00 1,9 0,0 20 11 24 13 S 50 0,0
21.04.2017 19:00:00 2,0 -0,1 20 11 25 14 S 50 0,0
21.04.2017 18:00:00 2,1 0,0 20 11 27 14 S 46 0,0
21.04.2017 17:00:00 1,7 0,4 21 11 30 16 SSE 50 0,0
21.04.2017 16:00:00 1,7 0,2 28 15 35 19 SSE 40 0,0
21.04.2017 15:00:00 1,9 0,7 27 15 31 17 SSE 50 0,0
21.04.2017 14:00:00 1,8 0,9 18 10 23 13 S 44 0,2
21.04.2017 13:00:00 1,7 1,0 20 11 35 19 SSW 22 0,0
21.04.2017 12:00:00 1,5 0,0 20 11 25 14 S 29 0,0
21.04.2017 11:00:00 1,5 -0,3 22 12 28 15 S 28 0,0
21.04.2017 10:00:00 1,4 -0,5 24 13 28 15 S 29 0,0
21.04.2017 09:00:00 1,1 -0,4 21 11 25 13 S 29 0,0
21.04.2017 08:00:00 1,0 -0,5 20 11 23 12 S 37 0,0
21.04.2017 07:00:00 0,9 -0,3 18 10 22 12 S 30 0,0
21.04.2017 06:00:00 0,9 -0,9 16 9 24 13 SSW 50 0,0
21.04.2017 05:00:00 1,0 -0,6 17 9 24 13 SW 50 0,0

tt = temperature
td = dewpoint
ff = wind speed
fx = gusts
dd = wind direction
vv = visibility
rr = precipitation

Next stations